Linden, Pennsylvania
Current Conditions -  °F | °C
As of 8:54 AM on Saturday 20 Dec 2014 (Local Time) from KIPT Reporting Station
Overcast Overcast  
Wind Chill: 25°   Ceiling: 2700
Heat Index: 31°   Visibility: 10mi
Dew Point: 19°   Wind: 6mph
Humidity: 61%   Direction: 340°NNW
Pressure: 30.28"   Gusts: NA
Location:  41.23°N, 77.13°W
Report Text: KIPT 201354Z 34005KT 10SM OVC027 M01/M07 A3028 RMK AO2 SLP260 T10061072
Loading
Personal Weather Stations






























Interactive Weather Map New forecast layout! Learn more

10-Day Weather Forecast

Advertisements
Track Severe Weather on mobile